createdAt,value
2019-04-14T06:24:51.460Z,8.15
2019-04-14T06:27:20.920Z,6.22
2019-04-14T06:29:52.063Z,8.48
2019-04-14T06:32:37.713Z,9.23
2019-04-14T06:35:14.822Z,12.68
2019-04-14T06:37:45.964Z,5.92
2019-04-14T06:40:15.434Z,6.65
2019-04-14T06:42:44.908Z,8.88
2019-04-14T06:45:14.394Z,7.22
2019-04-14T06:47:43.883Z,7.42
2019-04-14T06:50:13.464Z,8.78
2019-04-14T06:52:42.933Z,9.08
2019-04-14T06:55:12.435Z,9.80
2019-04-14T06:57:41.932Z,10.15
2019-04-14T07:02:34.075Z,7.35
2019-04-14T07:05:03.930Z,7.85
2019-04-14T07:07:33.403Z,7.65
2019-04-14T07:10:02.894Z,8.58
2019-04-14T07:12:32.507Z,8.68
2019-04-14T07:15:01.995Z,8.98
2019-04-14T07:17:32.451Z,6.72
2019-04-14T07:20:02.650Z,7.72
2019-04-14T07:22:32.183Z,8.43
2019-04-14T07:25:01.662Z,9.75
2019-04-14T07:27:32.227Z,6.70
2019-04-14T07:30:03.334Z,8.88
2019-04-14T07:32:40.673Z,9.20
2019-04-14T07:35:11.822Z,5.83
2019-04-14T07:37:45.622Z,7.30
2019-04-14T07:40:28.630Z,7.50
2019-04-14T07:43:08.622Z,8.33
2019-04-14T07:45:39.738Z,6.80
2019-04-14T07:48:10.865Z,8.58
2019-04-14T07:50:44.782Z,6.40
2019-04-14T07:53:15.895Z,9.90
2019-04-14T07:55:58.954Z,5.83
2019-04-14T07:58:30.062Z,8.47
2019-04-14T08:01:03.635Z,6.97
2019-04-14T08:03:51.115Z,7.47
2019-04-14T08:06:20.588Z,7.20
2019-04-14T08:08:50.083Z,9.65
2019-04-14T08:11:19.554Z,6.85
2019-04-14T08:13:50.011Z,7.35
2019-04-14T08:16:19.527Z,7.75
2019-04-14T08:18:49.065Z,7.12
2019-04-14T08:21:18.539Z,10.53
2019-04-14T08:23:48.031Z,7.17
2019-04-14T08:26:17.503Z,6.72
2019-04-14T08:28:47.000Z,7.80
2019-04-14T08:31:16.490Z,7.28
2019-04-14T08:33:45.968Z,8.30
2019-04-14T08:36:16.497Z,7.53
2019-04-14T08:38:45.975Z,7.92
2019-04-14T08:41:15.449Z,7.37
2019-04-14T08:43:55.562Z,8.70
2019-04-14T08:46:35.559Z,7.95
2019-04-14T08:49:09.862Z,9.53
2019-04-14T08:51:40.978Z,10.78
2019-04-14T08:54:26.945Z,9.20
2019-04-14T08:57:13.107Z,12.47
2019-04-14T08:59:44.258Z,9.45
2019-04-14T09:02:21.067Z,8.75
2019-04-14T09:04:54.911Z,8.18
2019-04-14T09:07:26.092Z,8.50
2019-04-14T09:10:03.395Z,9.05
2019-04-14T09:12:40.404Z,9.50
2019-04-14T09:15:10.046Z,9.43
2019-04-14T09:17:39.542Z,10.72
2019-04-14T09:20:09.351Z,8.85
2019-04-14T09:22:38.853Z,10.95
2019-04-14T09:25:08.467Z,10.38
2019-04-14T09:27:37.983Z,10.63
2019-04-14T09:30:08.864Z,9.55
2019-04-14T09:32:38.366Z,9.38
2019-04-14T09:35:07.840Z,9.98
2019-04-14T09:37:37.348Z,10.32
2019-04-14T09:40:07.110Z,10.50
2019-04-14T09:42:36.653Z,10.38
2019-04-14T09:45:07.482Z,9.75
2019-04-14T09:47:37.002Z,11.28
2019-04-14T09:50:07.619Z,10.35
2019-04-14T09:52:37.129Z,10.13
2019-04-14T09:55:07.215Z,10.30
2019-04-14T09:57:37.878Z,10.63
2019-04-14T10:00:07.738Z,11.05
2019-04-14T10:02:37.322Z,10.78
2019-04-14T10:05:07.349Z,12.47
2019-04-14T10:07:36.907Z,12.25
2019-04-14T10:10:07.110Z,11.45
2019-04-14T10:12:36.602Z,11.35
2019-04-14T10:15:06.876Z,11.78
2019-04-14T10:17:36.338Z,11.95
2019-04-14T10:20:06.589Z,11.38
2019-04-14T10:22:36.067Z,11.83
2019-04-14T10:25:06.922Z,11.30
2019-04-14T10:27:36.566Z,13.58
2019-04-14T10:30:09.251Z,12.43
2019-04-14T10:32:38.727Z,13.58
2019-04-14T13:02:17.583Z,23.32
2019-04-14T13:04:47.062Z,21.70
2019-04-14T13:07:17.711Z,18.98
2019-04-14T13:09:47.246Z,19.20
2019-04-14T13:12:16.703Z,21.48
2019-04-14T13:14:46.182Z,20.08
2019-04-14T13:17:15.729Z,18.82
2019-04-14T13:19:45.194Z,19.98
2019-04-14T13:22:14.687Z,19.35
2019-04-14T13:24:44.331Z,19.77
2019-04-14T13:27:13.883Z,19.32
2019-04-14T13:29:43.436Z,19.57
2019-04-14T13:32:13.017Z,18.77
2019-04-14T13:34:42.562Z,19.27
2019-04-14T13:37:12.047Z,17.62
2019-04-14T13:39:41.584Z,20.43
2019-04-14T13:42:11.062Z,18.12
2019-04-14T13:44:40.556Z,17.65
2019-04-14T13:47:10.051Z,21.62
2019-04-14T13:49:39.562Z,17.00
2019-04-14T13:52:09.070Z,20.17
2019-04-14T13:54:39.515Z,18.42
2019-04-14T13:57:09.014Z,19.67
2019-04-14T13:59:38.586Z,18.07
2019-04-14T14:02:08.136Z,15.93
2019-04-14T14:04:37.642Z,18.45
2019-04-14T14:07:07.411Z,15.93
2019-04-14T14:09:36.908Z,16.95
2019-04-14T14:12:24.318Z,17.30
2019-04-14T14:15:11.650Z,17.02
2019-04-14T14:17:45.265Z,15.55
2019-04-14T14:20:22.286Z,15.88
2019-04-14T14:22:59.643Z,16.55
2019-04-14T14:25:34.739Z,16.80
2019-04-14T14:28:04.325Z,16.12
2019-04-14T14:30:33.806Z,17.27
2019-04-14T14:33:03.299Z,15.43
2019-04-14T14:35:32.811Z,17.00
2019-04-14T14:38:02.328Z,16.23
2019-04-14T14:40:31.810Z,14.95
2019-04-14T14:43:01.490Z,15.30
2019-04-14T14:45:48.475Z,16.32
2019-04-14T14:48:34.444Z,14.23
2019-04-14T14:51:05.588Z,14.53
2019-04-14T14:53:35.092Z,18.07
2019-04-14T14:56:05.326Z,17.02
2019-04-14T14:58:34.835Z,20.25
2019-04-14T15:01:05.831Z,19.95
2019-04-14T15:03:35.335Z,16.30
2019-04-14T15:06:04.987Z,17.20
2019-04-14T15:08:34.494Z,15.28
2019-04-14T15:11:04.431Z,16.55
2019-04-14T15:13:34.010Z,16.77
2019-04-14T15:16:03.629Z,17.60
2019-04-14T15:18:33.222Z,21.65
2019-04-14T15:21:02.702Z,16.48
2019-04-14T15:23:32.186Z,18.75
2019-04-14T15:26:01.698Z,18.23
2019-04-14T15:28:31.188Z,16.82
2019-04-14T15:31:00.744Z,16.82
2019-04-14T15:33:30.257Z,17.70
2019-04-14T15:35:59.735Z,17.40
2019-04-14T15:38:29.223Z,16.57
2019-04-14T15:40:59.758Z,17.82
2019-04-14T15:43:29.243Z,19.75
2019-04-14T15:45:58.750Z,17.17
2019-04-14T15:48:28.227Z,16.10
2019-04-14T15:50:57.744Z,16.65
2019-04-14T15:53:37.721Z,15.60
2019-04-14T15:55:59.682Z,15.32
2019-04-14T15:58:45.715Z,15.85
2019-04-14T16:01:35.098Z,17.75
2019-04-14T16:04:06.394Z,16.37
2019-04-14T16:06:37.515Z,15.10
2019-04-14T16:09:09.302Z,13.25
2019-04-14T16:11:57.879Z,14.90
2019-04-14T16:14:31.773Z,14.28
2019-04-14T16:17:05.574Z,13.25
2019-04-14T16:19:46.014Z,12.58
2019-04-14T16:22:15.574Z,15.35
2019-04-14T16:24:45.246Z,12.28
2019-04-14T16:27:32.151Z,14.75
2019-04-14T16:30:05.902Z,12.43
2019-04-14T16:32:42.710Z,12.35
2019-04-14T16:35:13.894Z,12.20
2019-04-14T16:37:43.533Z,12.45
2019-04-14T16:40:13.679Z,11.55
2019-04-14T16:42:43.234Z,11.80
2019-04-14T16:45:13.383Z,16.48
2019-04-14T16:47:44.488Z,11.38
2019-04-14T16:50:14.119Z,11.63
2019-04-14T16:52:45.426Z,10.15
2019-04-14T16:55:16.613Z,11.20
2019-04-14T16:58:03.907Z,11.30
2019-04-14T17:00:37.118Z,10.93
2019-04-14T17:03:06.344Z,12.97
2019-04-14T17:05:38.882Z,10.63
2019-04-14T17:08:07.022Z,15.15
2019-04-14T17:10:36.594Z,9.63
2019-04-14T17:13:06.077Z,12.25
2019-04-14T17:15:55.190Z,12.58
2019-04-14T17:18:35.290Z,10.98
2019-04-14T17:21:12.232Z,9.33
2019-04-14T17:23:43.436Z,10.08
2019-04-14T17:26:14.550Z,10.63
2019-04-14T17:28:51.835Z,10.53
2019-04-14T17:32:22.237Z,14.75
2019-04-14T17:35:07.182Z,14.47
2019-04-14T17:37:43.931Z,14.33
2019-04-14T17:40:18.226Z,15.90
2019-04-14T17:42:52.001Z,15.03
2019-04-14T17:48:21.747Z,15.18
2019-04-14T17:50:58.822Z,16.17
2019-04-14T17:53:42.065Z,14.80
2019-04-14T17:56:13.202Z,13.10
2019-04-14T17:58:47.118Z,11.03
2019-04-14T18:01:18.383Z,13.55
2019-04-14T18:03:49.582Z,14.33
2019-04-14T18:06:32.885Z,12.50
2019-04-14T18:09:17.471Z,12.05
2019-04-14T18:12:00.508Z,13.98
2019-04-14T18:14:31.690Z,14.35
2019-04-14T18:17:14.751Z,10.50
2019-04-14T18:19:45.895Z,15.13
2019-04-14T18:22:15.416Z,12.30
2019-04-14T18:24:44.997Z,14.78
2019-04-14T18:27:14.483Z,13.45
2019-04-14T18:29:48.220Z,13.48
2019-04-14T18:34:52.603Z,13.20
2019-04-14T18:37:23.786Z,11.08
2019-04-14T18:39:54.912Z,11.65
2019-04-14T18:42:37.851Z,12.90
2019-04-14T18:45:19.123Z,11.60
2019-04-14T18:47:50.275Z,11.25
2019-04-14T18:50:30.276Z,10.30
2019-04-14T18:53:13.223Z,11.97
2019-04-14T18:56:02.476Z,11.78
2019-04-14T18:58:48.886Z,13.38
2019-04-14T19:01:23.065Z,16.62
2019-04-14T19:03:52.559Z,15.75
2019-04-14T19:06:22.051Z,12.45
2019-04-14T19:08:52.374Z,14.18
2019-04-14T19:11:41.892Z,12.60
2019-04-14T19:14:13.052Z,15.28
2019-04-14T19:16:47.070Z,10.98
2019-04-14T19:19:18.258Z,9.93
2019-04-14T19:21:47.703Z,14.13
2019-04-14T19:24:17.187Z,11.85
2019-04-14T19:26:46.711Z,14.00
2019-04-14T19:29:16.199Z,14.87
2019-04-14T19:31:45.714Z,17.12
2019-04-14T19:34:15.207Z,15.38
2019-04-14T19:36:44.695Z,13.68
2019-04-14T19:39:14.208Z,14.75
2019-04-14T19:41:43.879Z,11.35
2019-04-14T19:44:13.419Z,14.40
2019-04-14T19:46:43.951Z,14.40
2019-04-14T19:49:13.455Z,13.18
2019-04-14T19:51:42.981Z,13.55
2019-04-14T19:54:12.463Z,12.75
2019-04-14T19:56:41.986Z,12.07
2019-04-14T19:59:12.491Z,13.25
2019-04-14T20:01:42.069Z,12.13
2019-04-14T20:04:11.596Z,13.28
2019-04-14T20:06:41.211Z,12.85
2019-04-14T20:09:10.804Z,15.00
2019-04-14T20:11:40.650Z,12.63
2019-04-14T20:14:10.157Z,12.03
2019-04-14T20:16:41.318Z,12.20
2019-04-14T20:19:28.815Z,11.60
2019-04-14T20:22:02.839Z,13.05
2019-04-14T20:24:42.823Z,12.63
2019-04-14T20:27:30.228Z,13.45
2019-04-14T20:30:01.408Z,12.63
2019-04-14T20:32:32.615Z,12.73
2019-04-14T20:35:03.019Z,11.33
2019-04-14T20:37:32.511Z,12.93
2019-04-14T20:40:02.019Z,12.43
2019-04-14T20:42:32.775Z,13.08
2019-04-14T20:45:02.630Z,12.20
2019-04-14T20:47:35.195Z,11.63
2019-04-14T20:50:06.821Z,11.83
2019-04-14T20:52:36.374Z,11.08
2019-04-14T20:55:08.121Z,10.80
2019-04-14T20:57:37.753Z,12.30
2019-04-14T21:00:08.279Z,13.83
2019-04-14T21:02:46.966Z,13.65
2019-04-14T21:05:26.908Z,13.48
2019-04-14T21:08:14.483Z,15.28
2019-04-14T21:10:45.629Z,16.55
2019-04-14T21:13:19.822Z,14.83
2019-04-14T21:15:54.616Z,13.43
2019-04-14T21:21:13.494Z,11.97
2019-04-14T21:23:44.642Z,12.98
2019-04-14T21:26:18.779Z,11.75
2019-04-14T21:28:49.940Z,12.68
2019-04-14T21:31:23.768Z,13.38
2019-04-14T21:36:40.053Z,9.83
2019-04-14T21:39:29.723Z,10.70
2019-04-14T21:41:59.512Z,12.05
2019-04-14T21:44:28.995Z,11.20
2019-04-14T21:46:58.557Z,10.43
2019-04-14T21:49:28.073Z,11.48
2019-04-14T21:51:59.379Z,9.15
2019-04-14T21:54:30.027Z,10.70
2019-04-14T21:57:17.015Z,10.23
2019-04-14T22:00:04.438Z,11.20
2019-04-14T22:02:53.218Z,10.05
2019-04-14T22:05:40.185Z,9.73
2019-04-14T22:08:25.212Z,12.88
2019-04-14T22:10:55.738Z,12.07
2019-04-14T22:13:25.307Z,15.10
2019-04-14T22:15:54.887Z,10.32
2019-04-14T22:18:24.379Z,9.70
2019-04-14T22:20:53.888Z,10.40
2019-04-14T22:23:23.549Z,11.45
2019-04-14T22:25:53.047Z,9.83
2019-04-14T22:28:22.567Z,11.38
2019-04-14T22:30:52.199Z,10.40
2019-04-14T22:33:21.684Z,9.93
2019-04-14T22:35:51.255Z,10.08
2019-04-14T22:38:20.839Z,12.82
2019-04-14T22:40:50.323Z,9.80
2019-04-14T22:43:19.891Z,13.22
2019-04-14T22:45:49.371Z,11.35
2019-04-14T22:48:18.871Z,14.73
2019-04-14T22:50:48.356Z,10.30
2019-04-14T22:53:17.847Z,9.78
2019-04-14T22:55:47.341Z,10.13
2019-04-14T22:58:16.842Z,10.23
2019-04-14T23:00:51.170Z,10.28
2019-04-14T23:03:38.935Z,11.22
2019-04-14T23:06:28.114Z,10.35
2019-04-14T23:09:15.773Z,11.00
2019-04-14T23:11:46.912Z,14.68
2019-04-14T23:14:20.459Z,9.90
2019-04-14T23:16:57.383Z,9.85
2019-04-14T23:19:28.523Z,9.23
2019-04-14T23:22:02.328Z,9.25
2019-04-14T23:24:33.535Z,9.30
2019-04-14T23:27:03.037Z,10.78
2019-04-14T23:29:32.513Z,10.85
2019-04-14T23:32:02.013Z,12.63
2019-04-14T23:34:31.495Z,11.08
2019-04-14T23:37:01.059Z,10.88
2019-04-14T23:39:30.697Z,10.25
2019-04-14T23:42:00.260Z,12.98
2019-04-14T23:44:29.758Z,9.78
2019-04-14T23:46:59.355Z,12.73
2019-04-14T23:49:28.888Z,9.68
2019-04-14T23:51:58.344Z,9.45
2019-04-14T23:54:27.861Z,9.50
2019-04-14T23:57:05.298Z,12.33
2019-04-14T23:59:29.668Z,11.88
